< < Back
Terminal Aerodrome Forecast


Current Version              Previous Versions:   1  2  3  4  5  6  7  8  9  

Terminal Aerodrome Forecast

628
FTUS44 KBMX 282300
TAFBHM
TAF
KBHM 282333Z 2900/2924 18003KT P6SM SKC
     FM291500 19007KT P6SM FEW040=



Latest METAR

891
SAUS70 KWBC 290500
MTRBHM
METAR KBHM 290453Z 19003KT 10SM CLR 07/M07 A3026 RMK AO2 SLP246
T00721072


USA.gov is the U.S. government's official web portal to all federal, state and local government web resources and services.